This is the latest recevied weather packets stored in our database for station/object AE5EW. If no packets are shown the sender has not sent any weather packets the latest 10 day(s).
| Time | Temp. | Humidity | Pressure | Rain* | Wind** | Luminosity | Snow |
|---|---|---|---|---|---|---|---|
| 1787412664 | 30.56° C | 72% | 1017.7 hPa | 0 mm | - | - | - |
| 1787412363 | 30.56° C | 71% | 1017.3 hPa | 0 mm | - | - | - |
| 1787412059 | 30° C | 74% | 1017.7 hPa | 0 mm | - | - | - |
| 1787411757 | 30° C | 71% | 1017.7 hPa | 0 mm | - | - | - |
| 1787411452 | 29.44° C | 76% | 1017.6 hPa | 0 mm | - | - | - |
| 1787411147 | 29.44° C | 76% | 1017.8 hPa | 0 mm | - | - | - |
| 1787410843 | 29.44° C | 76% | 1017.7 hPa | 0 mm | - | - | - |
| 1787410539 | 29.44° C | 77% | 1017.8 hPa | 0 mm | - | - | - |
| 1787410239 | 28.89° C | 78% | 1017.7 hPa | 0 mm | - | - | - |
| 1787409935 | 29.44° C | 75% | 1017.6 hPa | 0 mm | - | - | - |
| 1787409631 | 29.44° C | 74% | 1017.7 hPa | 0 mm | - | - | - |
| 1787409327 | 28.89° C | 77% | 1017.8 hPa | 0 mm | - | - | - |
| 1787409023 | 28.89° C | 74% | 1017.6 hPa | 0 mm | - | - | - |
| 1787408718 | 28.33° C | 77% | 1017.6 hPa | 0 mm | - | - | - |
| 1787408413 | 28.89° C | 77% | 1017.6 hPa | 0 mm | - | - | - |
| 1787408109 | 28.33° C | 77% | 1017.5 hPa | 0 mm | - | - | - |
| 1787407804 | 28.33° C | 78% | 1017.6 hPa | 0 mm | - | - | - |
| 1787407500 | 28.33° C | 80% | 1017.7 hPa | 0 mm | - | - | - |
| 1787407199 | 27.78° C | 79% | 1017.4 hPa | 0 mm | - | - | - |
| 1787406895 | 27.22° C | 82% | 1017.6 hPa | 0 mm | - | - | - |
| 1787406590 | 27.78° C | 79% | 1017.7 hPa | 0 mm | - | - | - |
| 1787406287 | 27.22° C | 83% | 1017.5 hPa | 0 mm | - | - | - |
| 1787405983 | 26.67° C | 85% | 1017.6 hPa | 0 mm | - | - | - |
| 1787405679 | 26.11° C | 84% | 1017.5 hPa | 0 mm | - | - | - |
| 1787405374 | 26.11° C | 85% | 1017.6 hPa | 0 mm | - | - | - |
* Rain latest hour (hover to see other rain measurements)
** Current wind speed in m/s (hover to see current wind gust speed)